createdAt,value
2019-04-14T00:00:29.236Z,3.55
2019-04-14T00:03:17.188Z,3.00
2019-04-14T00:05:47.812Z,3.75
2019-04-14T00:08:17.671Z,3.10
2019-04-14T00:10:48.523Z,3.30
2019-04-14T00:15:49.079Z,3.25
2019-04-14T00:18:16.958Z,3.30
2019-04-14T00:20:46.736Z,3.80
2019-04-14T00:23:15.900Z,3.80
2019-04-14T00:25:45.495Z,3.50
2019-04-14T00:28:14.434Z,3.30
2019-04-14T00:30:44.696Z,3.70
2019-04-14T00:33:19.158Z,3.55
2019-04-14T00:35:53.760Z,3.58
2019-04-14T00:38:24.433Z,3.42
2019-04-14T00:40:58.289Z,3.47
2019-04-14T00:43:33.020Z,3.50
2019-04-14T00:46:04.310Z,3.00
2019-04-14T00:48:34.178Z,3.75
2019-04-14T00:51:03.143Z,3.72
2019-04-14T00:53:32.063Z,3.90
2019-04-14T00:56:01.969Z,3.70
2019-04-14T00:58:31.964Z,3.80
2019-04-14T01:01:02.598Z,3.77
2019-04-14T01:03:31.582Z,3.75
2019-04-14T01:06:01.187Z,4.10
2019-04-14T01:08:31.329Z,3.70
2019-04-14T01:11:00.996Z,3.80
2019-04-14T01:13:31.066Z,3.50
2019-04-14T01:16:07.189Z,3.90
2019-04-14T01:18:31.906Z,4.37
2019-04-14T01:21:00.895Z,4.33
2019-04-14T01:23:30.510Z,4.60
2019-04-14T01:26:00.566Z,4.17
2019-04-14T01:28:30.710Z,4.40
2019-04-14T01:30:59.699Z,4.13
2019-04-14T01:33:29.388Z,3.85
2019-04-14T01:35:59.516Z,3.90
2019-04-14T01:38:29.631Z,3.33
2019-04-14T01:40:59.835Z,3.62
2019-04-14T01:43:29.915Z,3.87
2019-04-14T01:46:07.880Z,3.22
2019-04-14T01:48:30.028Z,3.30
2019-04-14T01:51:16.141Z,3.30
2019-04-14T01:54:03.856Z,3.37
2019-04-14T01:56:34.523Z,3.37
2019-04-14T01:59:04.966Z,3.08
2019-04-14T02:01:38.962Z,3.50
2019-04-14T02:04:07.899Z,3.00
2019-04-14T02:06:37.627Z,3.65
2019-04-14T02:09:11.888Z,3.65
2019-04-14T02:11:42.267Z,3.33
2019-04-14T02:14:12.488Z,3.55
2019-04-14T02:16:47.133Z,3.90
2019-04-14T02:19:13.102Z,3.62
2019-04-14T02:21:43.349Z,3.70
2019-04-14T02:24:13.442Z,3.90
2019-04-14T02:26:43.719Z,3.57
2019-04-14T02:29:12.839Z,3.58
2019-04-14T02:32:13.920Z,3.67
2019-04-14T02:34:39.136Z,3.47
2019-04-14T02:37:17.617Z,3.45
2019-04-14T02:39:38.671Z,3.45
2019-04-14T02:42:19.411Z,3.22
2019-04-14T02:47:39.290Z,4.55
2019-04-14T02:49:44.568Z,4.70
2019-04-14T02:52:11.592Z,4.30
2019-04-14T02:57:20.510Z,4.30
2019-04-14T02:59:44.634Z,4.42
2019-04-14T03:02:24.766Z,3.85
2019-04-14T03:04:43.210Z,4.30
2019-04-14T03:07:34.294Z,3.90
2019-04-14T03:09:48.448Z,3.72
2019-04-14T03:12:16.774Z,4.62
2019-04-14T03:14:49.870Z,4.20
2019-04-14T03:20:19.322Z,3.83
2019-04-14T03:22:44.299Z,4.55
2019-04-14T03:25:26.593Z,4.92
2019-04-14T03:27:58.990Z,5.12
2019-04-14T03:33:32.300Z,4.78
2019-04-14T03:38:26.446Z,4.85
2019-04-14T03:40:50.512Z,5.05
2019-04-14T03:43:24.983Z,5.20
2019-04-14T03:45:54.233Z,4.40
2019-04-14T03:50:56.646Z,4.53
2019-04-14T03:53:22.204Z,4.08
2019-04-14T03:55:53.563Z,4.62
2019-04-14T03:58:15.978Z,4.60
2019-04-14T04:00:44.835Z,3.75
2019-04-14T04:03:13.732Z,4.20
2019-04-14T04:05:43.447Z,4.35
2019-04-14T04:08:13.576Z,4.25
2019-04-14T04:10:53.297Z,4.43
2019-04-14T04:13:23.631Z,4.33
2019-04-14T04:15:54.339Z,4.42
2019-04-14T04:18:24.781Z,7.10
2019-04-14T04:20:58.806Z,8.58
2019-04-14T04:23:35.625Z,8.45
2019-04-14T04:26:06.446Z,5.92
2019-04-14T04:28:47.090Z,5.62
2019-04-14T04:31:17.826Z,4.92
2019-04-14T04:33:50.772Z,4.90
2019-04-14T04:36:24.819Z,3.87
2019-04-14T04:39:01.801Z,3.35
2019-04-14T04:41:31.739Z,4.28
2019-04-14T04:44:00.791Z,3.60
2019-04-14T04:46:30.852Z,4.20
2019-04-14T04:49:08.194Z,3.93
2019-04-14T04:51:31.145Z,3.75
2019-04-14T04:54:00.062Z,3.45
2019-04-14T04:56:29.752Z,3.60
2019-04-14T04:58:58.964Z,4.00
2019-04-14T05:01:27.877Z,3.25
2019-04-14T05:03:57.975Z,3.50
2019-04-14T05:06:50.609Z,3.22
2019-04-14T05:09:21.228Z,3.80
2019-04-14T05:12:09.044Z,4.25
2019-04-14T05:14:39.716Z,3.60
2019-04-14T05:17:08.521Z,3.12
2019-04-14T05:19:39.332Z,3.00
2019-04-14T05:22:09.153Z,3.22
2019-04-14T05:24:38.007Z,3.20
2019-04-14T05:27:07.798Z,3.00
2019-04-14T05:29:36.782Z,2.77
2019-04-14T05:32:06.645Z,3.30
2019-04-14T05:34:36.616Z,3.12
2019-04-14T05:37:07.188Z,2.60
2019-04-14T05:39:36.059Z,3.20
2019-04-14T05:42:12.263Z,3.20
2019-04-14T05:44:36.095Z,3.50
2019-04-14T05:47:05.041Z,2.85
2019-04-14T05:49:39.081Z,2.45
2019-04-14T05:52:05.505Z,2.70
2019-04-14T05:54:34.522Z,3.03
2019-04-14T05:57:04.427Z,3.22
2019-04-14T05:59:33.362Z,3.08
2019-04-14T06:02:02.582Z,2.30
2019-04-14T06:04:31.687Z,2.60
2019-04-14T06:07:01.522Z,2.92
2019-04-14T06:09:30.412Z,2.87
2019-04-14T06:12:01.037Z,2.77
2019-04-14T06:14:29.877Z,2.60
2019-04-14T06:16:58.786Z,3.00
2019-04-14T06:19:36.530Z,2.90
2019-04-14T06:21:58.147Z,2.55
2019-04-14T06:24:26.940Z,2.90
2019-04-14T06:26:55.849Z,2.72
2019-04-14T06:29:24.654Z,3.15
2019-04-14T06:32:07.278Z,2.70
2019-04-14T06:34:47.034Z,2.47
2019-04-14T06:37:33.850Z,2.77
2019-04-14T06:40:04.497Z,3.00
2019-04-14T06:42:33.405Z,3.10
2019-04-14T06:45:02.210Z,3.25
2019-04-14T06:47:31.016Z,4.45
2019-04-14T06:49:59.822Z,3.52
2019-04-14T06:52:28.731Z,4.08
2019-04-14T06:54:57.642Z,3.77
2019-04-14T06:57:26.562Z,4.05
2019-04-14T06:59:55.453Z,4.58
2019-04-14T07:02:24.360Z,3.60
2019-04-14T07:04:53.269Z,3.65
2019-04-14T07:07:22.176Z,3.52
2019-04-14T07:09:51.090Z,3.27
2019-04-14T07:12:19.897Z,3.55
2019-04-14T07:14:48.801Z,3.50
2019-04-14T07:17:17.706Z,3.33
2019-04-14T07:19:47.974Z,3.37
2019-04-14T07:22:16.851Z,3.70
2019-04-14T07:24:45.656Z,3.45
2019-04-14T07:27:14.463Z,3.17
2019-04-14T07:29:45.109Z,3.20
2019-04-14T07:32:15.757Z,2.83
2019-04-14T07:34:51.728Z,2.25
2019-04-14T07:37:34.553Z,2.50
2019-04-14T07:40:22.397Z,2.12
2019-04-14T07:42:53.045Z,2.50
2019-04-14T07:45:32.600Z,2.12
2019-04-14T07:48:12.245Z,2.00
2019-04-14T07:50:55.177Z,2.60
2019-04-14T07:53:28.694Z,2.27
2019-04-14T07:56:11.414Z,2.25
2019-04-14T07:58:58.332Z,2.00
2019-04-14T08:01:29.175Z,1.75
2019-04-14T08:03:59.730Z,4.25
2019-04-14T08:06:28.518Z,1.47
2019-04-14T08:08:57.328Z,3.17
2019-04-14T08:11:26.151Z,2.10
2019-04-14T08:13:55.156Z,2.80
2019-04-14T08:16:23.963Z,2.40
2019-04-14T08:18:52.871Z,1.65
2019-04-14T08:21:21.778Z,1.85
2019-04-14T08:23:50.685Z,2.00
2019-04-14T08:26:19.593Z,1.77
2019-04-14T08:28:48.351Z,2.02
2019-04-14T08:31:17.309Z,2.27
2019-04-14T08:33:46.112Z,2.08
2019-04-14T08:36:14.902Z,1.98
2019-04-14T08:38:43.825Z,2.08
2019-04-14T08:41:12.736Z,1.40
2019-04-14T08:43:45.736Z,1.70
2019-04-14T08:46:16.178Z,1.57
2019-04-14T08:48:55.933Z,2.08
2019-04-14T08:51:32.517Z,1.10
2019-04-14T08:54:02.965Z,1.20
2019-04-14T08:56:36.473Z,1.10
2019-04-14T08:59:19.198Z,1.00
2019-04-14T09:02:01.920Z,1.45
2019-04-14T09:04:35.434Z,1.40
2019-04-14T09:07:11.507Z,1.40
2019-04-14T09:09:41.948Z,1.90
2019-04-14T09:12:16.494Z,2.17
2019-04-14T09:14:56.227Z,1.35
2019-04-14T09:17:15.941Z,1.10
2019-04-14T09:19:44.947Z,1.10
2019-04-14T09:22:13.753Z,1.30
2019-04-14T09:24:42.660Z,1.20
2019-04-14T09:27:11.466Z,2.15
2019-04-14T09:29:40.374Z,1.37
2019-04-14T09:32:11.022Z,1.20
2019-04-14T09:34:39.827Z,1.37
2019-04-14T09:37:08.837Z,1.57
2019-04-14T09:39:37.643Z,1.70
2019-04-14T09:42:06.552Z,1.50
2019-04-14T09:44:35.458Z,1.67
2019-04-14T09:47:04.263Z,1.80
2019-04-14T09:49:33.171Z,1.55
2019-04-14T09:52:01.978Z,1.30
2019-04-14T09:54:30.887Z,1.47
2019-04-14T09:56:59.790Z,1.95
2019-04-14T09:59:28.700Z,1.20
2019-04-14T10:01:57.812Z,1.30
2019-04-14T10:04:26.720Z,1.67
2019-04-14T10:06:55.525Z,1.60
2019-04-14T10:09:24.537Z,1.60
2019-04-14T10:11:56.294Z,1.60
2019-04-14T10:14:23.886Z,2.15
2019-04-14T10:16:52.899Z,1.60
2019-04-14T10:19:21.702Z,1.60
2019-04-14T10:21:50.490Z,1.52
2019-04-14T10:24:19.313Z,1.50
2019-04-14T10:26:48.326Z,1.42
2019-04-14T10:29:17.130Z,1.70
2019-04-14T10:31:45.934Z,1.87
2019-04-14T10:34:14.739Z,1.67
2019-04-14T10:36:43.544Z,1.50
2019-04-14T10:39:12.455Z,2.00
2019-04-14T10:41:41.361Z,2.65
2019-04-14T10:44:10.267Z,1.50
2019-04-14T10:46:39.160Z,1.77
2019-04-14T10:49:08.083Z,1.20
2019-04-14T10:51:38.770Z,1.20
2019-04-14T10:54:07.528Z,1.35
2019-04-14T10:56:36.342Z,1.60
2019-04-14T10:59:05.262Z,1.60
2019-04-14T11:01:34.363Z,3.30
2019-04-14T11:04:03.372Z,1.80
2019-04-14T11:06:33.917Z,1.60
2019-04-14T11:09:02.817Z,1.52
2019-04-14T11:11:31.836Z,1.60
2019-04-14T11:14:00.749Z,1.67
2019-04-14T11:16:29.753Z,1.75
2019-04-14T11:18:58.715Z,1.75
2019-04-14T11:21:27.569Z,1.42
2019-04-14T11:23:56.483Z,1.50
2019-04-14T11:26:25.281Z,1.40
2019-04-14T11:28:54.195Z,2.60
2019-04-14T11:31:40.704Z,1.72
2019-04-14T11:34:11.450Z,1.47
2019-04-14T11:36:57.247Z,1.50
2019-04-14T11:39:26.168Z,2.00
2019-04-14T11:41:55.062Z,1.90
2019-04-14T11:44:23.969Z,1.72
2019-04-14T11:46:52.885Z,1.77
2019-04-14T11:49:21.654Z,1.75
2019-04-14T11:51:55.407Z,2.08
2019-04-14T11:54:21.150Z,2.00
2019-04-14T11:56:50.145Z,1.70
2019-04-14T11:59:20.690Z,1.70
2019-04-14T12:01:54.104Z,1.87
2019-04-14T12:04:27.428Z,1.87
2019-04-14T12:07:07.270Z,1.62
2019-04-14T12:09:52.755Z,1.85
2019-04-14T12:12:21.765Z,1.35
2019-04-14T12:14:50.675Z,1.77
2019-04-14T12:17:19.477Z,1.72
2019-04-14T12:19:48.337Z,1.40
2019-04-14T12:22:17.192Z,1.65
2019-04-14T12:24:45.999Z,1.87
2019-04-14T12:27:14.912Z,1.80
2019-04-14T12:29:43.721Z,1.40
2019-04-14T12:32:13.249Z,1.55
2019-04-14T12:34:42.070Z,1.50
2019-04-14T12:37:10.949Z,1.62
2019-04-14T12:39:39.854Z,1.75
2019-04-14T12:42:27.325Z,1.52
2019-04-14T12:45:00.607Z,1.50
2019-04-14T12:47:40.628Z,1.57
2019-04-14T12:50:11.508Z,1.57
2019-04-14T12:52:40.417Z,1.92
2019-04-14T12:55:09.351Z,1.80
2019-04-14T12:57:39.972Z,1.70
2019-04-14T13:00:10.721Z,1.77
2019-04-14T13:02:41.267Z,1.90
2019-04-14T13:05:11.814Z,2.40
2019-04-14T13:07:40.822Z,2.35
2019-04-14T13:10:09.713Z,2.17
2019-04-14T13:12:38.535Z,2.02
2019-04-14T13:15:07.545Z,2.02
2019-04-14T13:17:37.476Z,1.70
2019-04-14T13:20:08.126Z,2.27
2019-04-14T13:22:37.038Z,2.67
2019-04-14T13:25:06.533Z,1.50
2019-04-14T13:27:35.666Z,1.87
2019-04-14T13:30:08.155Z,1.60
2019-04-14T13:32:37.063Z,1.60
2019-04-14T13:35:07.558Z,1.85
2019-04-14T13:37:36.417Z,1.72
2019-04-14T13:40:06.958Z,1.70
2019-04-14T13:42:35.767Z,2.17
2019-04-14T13:45:05.803Z,1.57
2019-04-14T13:47:34.807Z,1.30
2019-04-14T13:50:05.569Z,1.67
2019-04-14T13:52:45.995Z,1.85
2019-04-14T13:55:05.981Z,2.02
2019-04-14T13:57:34.950Z,1.67
2019-04-14T14:00:10.305Z,1.60
2019-04-14T14:02:39.410Z,1.57
2019-04-14T14:05:09.702Z,1.52
2019-04-14T14:07:38.658Z,1.93
2019-04-14T14:10:08.726Z,1.82
2019-04-14T14:12:39.239Z,2.00
2019-04-14T14:15:10.294Z,1.55
2019-04-14T14:17:43.603Z,1.92
2019-04-14T14:20:14.355Z,2.00
2019-04-14T14:23:01.377Z,1.98
2019-04-14T14:25:34.891Z,1.77
2019-04-14T14:28:03.898Z,1.72
2019-04-14T14:30:32.807Z,1.82
2019-04-14T14:33:01.613Z,1.72
2019-04-14T14:35:30.519Z,1.70
2019-04-14T14:37:59.429Z,1.95
2019-04-14T14:40:28.335Z,2.00
2019-04-14T14:42:57.158Z,1.77
2019-04-14T14:45:44.061Z,2.30
2019-04-14T14:48:20.544Z,2.52
2019-04-14T14:50:57.024Z,2.30
2019-04-14T14:53:25.831Z,1.95
2019-04-14T14:55:54.633Z,2.42
2019-04-14T14:58:23.541Z,1.77
2019-04-14T15:00:52.558Z,1.92
2019-04-14T15:03:21.356Z,2.33
2019-04-14T15:05:50.220Z,2.12
2019-04-14T15:08:19.157Z,2.25
2019-04-14T15:10:47.977Z,2.10
2019-04-14T15:13:16.783Z,2.08
2019-04-14T15:15:45.695Z,2.20
2019-04-14T15:18:14.601Z,2.30
2019-04-14T15:20:43.510Z,2.62
2019-04-14T15:23:24.348Z,1.70
2019-04-14T15:25:43.779Z,1.92
2019-04-14T15:28:15.495Z,2.02
2019-04-14T15:30:43.231Z,2.10
2019-04-14T15:33:12.957Z,1.52
2019-04-14T15:35:51.430Z,1.50
2019-04-14T15:38:20.292Z,1.65
2019-04-14T15:40:49.199Z,2.17
2019-04-14T15:43:18.209Z,1.85
2019-04-14T15:45:47.118Z,2.10
2019-04-14T15:48:16.024Z,2.15
2019-04-14T15:50:45.685Z,2.05
2019-04-14T15:53:14.557Z,2.02
2019-04-14T15:55:43.464Z,2.20
2019-04-14T15:58:30.589Z,2.52
2019-04-14T16:01:07.308Z,2.27
2019-04-14T16:03:37.824Z,2.00
2019-04-14T16:06:17.474Z,1.95
2019-04-14T16:08:53.997Z,2.00
2019-04-14T16:11:27.571Z,2.22
2019-04-14T16:14:13.175Z,1.80
2019-04-14T16:17:00.082Z,1.90
2019-04-14T16:19:48.336Z,2.60
2019-04-14T16:22:17.240Z,2.33
2019-04-14T16:24:47.053Z,2.77
2019-04-14T16:27:27.028Z,3.02
2019-04-14T16:29:57.470Z,2.95
2019-04-14T16:32:33.747Z,3.15
2019-04-14T16:35:04.292Z,2.85
2019-04-14T16:37:33.303Z,3.70
2019-04-14T16:40:02.108Z,2.67
2019-04-14T16:42:30.913Z,2.60
2019-04-14T16:44:59.824Z,2.50
2019-04-14T16:47:28.868Z,2.45
2019-04-14T16:49:57.842Z,2.42
2019-04-14T16:52:31.047Z,2.50
2019-04-14T16:55:01.491Z,2.75
2019-04-14T16:57:48.309Z,2.98
2019-04-14T17:00:21.590Z,2.67
2019-04-14T17:02:50.249Z,2.70
2019-04-14T17:05:19.331Z,2.70
2019-04-14T17:07:48.241Z,3.05
2019-04-14T17:10:17.147Z,3.00
2019-04-14T17:12:45.910Z,2.90
2019-04-14T17:15:33.076Z,3.35
2019-04-14T17:18:19.896Z,3.58
2019-04-14T17:21:06.915Z,3.70
2019-04-14T17:23:49.537Z,3.52
2019-04-14T17:26:20.085Z,3.90
2019-04-14T17:28:59.532Z,4.17
2019-04-14T17:31:45.940Z,4.05
2019-04-14T17:34:19.556Z,4.85
2019-04-14T17:37:06.478Z,5.83
2019-04-14T17:39:55.442Z,5.20
2019-04-14T17:42:32.028Z,5.87
2019-04-14T17:45:05.231Z,5.10
2019-04-14T17:47:38.744Z,5.12
2019-04-14T17:50:26.523Z,4.42
2019-04-14T17:53:15.561Z,3.95
2019-04-14T17:55:51.852Z,4.45
2019-04-14T17:58:22.356Z,4.33
2019-04-14T18:00:55.990Z,5.03
2019-04-14T18:03:26.537Z,4.70
2019-04-14T18:06:13.559Z,4.50
2019-04-14T18:09:00.682Z,5.17
2019-04-14T18:11:43.204Z,4.95
2019-04-14T18:14:29.098Z,5.15
2019-04-14T18:17:02.985Z,5.30
2019-04-14T18:19:33.567Z,5.42
2019-04-14T18:22:02.531Z,5.45
2019-04-14T18:24:41.733Z,5.67
2019-04-14T18:27:01.825Z,6.37
2019-04-14T18:29:38.305Z,5.97
2019-04-14T18:32:11.513Z,5.47
2019-04-14T18:34:58.333Z,5.25
2019-04-14T18:37:28.874Z,6.55
2019-04-14T18:40:11.495Z,6.60
2019-04-14T18:42:54.219Z,6.03
2019-04-14T18:45:30.599Z,7.87
2019-04-14T18:48:01.045Z,7.22
2019-04-14T18:50:47.760Z,6.53
2019-04-14T18:53:24.135Z,5.78
2019-04-14T18:56:03.994Z,6.17
2019-04-14T18:58:43.547Z,5.42
2019-04-14T19:01:14.091Z,5.70
2019-04-14T19:03:42.929Z,6.10
2019-04-14T19:06:11.908Z,5.75
2019-04-14T19:08:40.915Z,5.30
2019-04-14T19:11:14.533Z,6.00
2019-04-14T19:13:45.080Z,4.85
2019-04-14T19:16:18.284Z,5.90
2019-04-14T19:18:48.809Z,6.15
2019-04-14T19:21:19.273Z,6.30
2019-04-14T19:23:48.079Z,6.60
2019-04-14T19:26:16.966Z,6.37
2019-04-14T19:28:45.794Z,7.03
2019-04-14T19:31:14.698Z,8.30
2019-04-14T19:33:43.605Z,7.97
2019-04-14T19:36:12.617Z,8.35
2019-04-14T19:38:41.423Z,8.68
2019-04-14T19:41:10.229Z,8.53
2019-04-14T19:43:39.033Z,10.50
2019-04-14T19:46:08.042Z,10.45
2019-04-14T19:48:36.965Z,10.70
2019-04-14T19:51:05.858Z,10.75
2019-04-14T19:53:34.766Z,9.68
2019-04-14T19:56:03.571Z,8.15
2019-04-14T19:58:32.583Z,7.30
2019-04-14T20:01:01.488Z,8.68
2019-04-14T20:03:30.294Z,9.85
2019-04-14T20:05:59.101Z,8.23
2019-04-14T20:08:27.961Z,8.68
2019-04-14T20:10:56.915Z,7.53
2019-04-14T20:13:27.460Z,7.22
2019-04-14T20:16:03.946Z,7.53
2019-04-14T20:18:37.353Z,6.70
2019-04-14T20:21:07.898Z,5.37
2019-04-14T20:23:38.443Z,6.12
2019-04-14T20:26:15.232Z,5.00
2019-04-14T20:28:45.629Z,4.28
2019-04-14T20:31:32.185Z,5.15
2019-04-14T20:34:01.030Z,5.10
2019-04-14T20:36:29.899Z,4.70
2019-04-14T20:38:58.704Z,4.42
2019-04-14T20:41:27.700Z,4.65
2019-04-14T20:43:56.519Z,4.33
2019-04-14T20:46:25.431Z,3.77
2019-04-14T20:48:55.192Z,3.70
2019-04-14T20:51:24.162Z,3.35
2019-04-14T20:53:53.172Z,3.98
2019-04-14T20:56:21.987Z,3.62
2019-04-14T20:58:50.885Z,3.33
2019-04-14T21:01:20.103Z,3.10
2019-04-14T21:03:56.684Z,3.27
2019-04-14T21:06:32.962Z,3.67
2019-04-14T21:09:15.479Z,3.67
2019-04-14T21:11:48.731Z,3.40
2019-04-14T21:14:35.810Z,3.50
2019-04-14T21:17:06.318Z,3.33
2019-04-14T21:19:48.776Z,3.22
2019-04-14T21:22:35.799Z,3.58
2019-04-14T21:25:10.742Z,3.77
2019-04-14T21:27:47.222Z,3.50
2019-04-14T21:30:20.428Z,3.85
2019-04-14T21:32:50.972Z,3.58
2019-04-14T21:35:27.253Z,2.58
2019-04-14T21:38:00.455Z,2.83
2019-04-14T21:40:33.765Z,2.65
2019-04-14T21:43:02.774Z,2.90
2019-04-14T21:45:31.682Z,2.77
2019-04-14T21:48:00.489Z,2.27
2019-04-14T21:50:29.287Z,2.27
2019-04-14T21:52:58.100Z,2.62
2019-04-14T21:55:26.998Z,2.22
2019-04-14T21:58:00.213Z,2.30
2019-04-14T22:00:57.728Z,2.22
2019-04-14T22:03:37.531Z,2.40
2019-04-14T22:06:08.077Z,2.70
2019-04-14T22:08:44.661Z,2.10
2019-04-14T22:11:18.173Z,1.87
2019-04-14T22:13:46.982Z,2.30
2019-04-14T22:16:15.788Z,2.30
2019-04-14T22:18:44.591Z,2.27
2019-04-14T22:21:13.395Z,2.00
2019-04-14T22:23:42.301Z,2.05
2019-04-14T22:26:11.107Z,2.45
2019-04-14T22:28:39.897Z,2.20
2019-04-14T22:31:08.820Z,2.40
2019-04-14T22:33:38.748Z,2.22
2019-04-14T22:36:07.659Z,2.30
2019-04-14T22:38:36.427Z,2.30
2019-04-14T22:41:05.472Z,2.20
2019-04-14T22:43:34.383Z,1.70
2019-04-14T22:46:03.275Z,1.98
2019-04-14T22:48:32.097Z,2.08
2019-04-14T22:51:00.902Z,1.98
2019-04-14T22:53:29.811Z,2.10
2019-04-14T22:55:58.717Z,2.52
2019-04-14T22:58:27.626Z,2.35
2019-04-14T23:01:02.378Z,2.47
2019-04-14T23:03:47.750Z,2.92
2019-04-14T23:06:18.175Z,2.70
2019-04-14T23:09:04.952Z,2.62
2019-04-14T23:11:41.287Z,2.52
2019-04-14T23:14:11.834Z,2.10
2019-04-14T23:16:42.274Z,2.02
2019-04-14T23:19:31.243Z,2.25
2019-04-14T23:22:01.641Z,2.27
2019-04-14T23:24:32.128Z,2.02
2019-04-14T23:27:01.040Z,1.98
2019-04-14T23:29:29.842Z,1.57
2019-04-14T23:31:58.752Z,2.02
2019-04-14T23:34:27.554Z,2.10
2019-04-14T23:36:56.361Z,2.20
2019-04-14T23:39:25.269Z,1.70
2019-04-14T23:41:54.277Z,2.00
2019-04-14T23:44:23.185Z,2.10
2019-04-14T23:46:51.992Z,2.02
2019-04-14T23:49:22.645Z,2.10
2019-04-14T23:51:51.341Z,1.90
2019-04-14T23:54:20.250Z,2.08
2019-04-14T23:56:49.157Z,2.27
2019-04-14T23:59:17.964Z,2.02
